sensor_id;sensor_type;location;lat;lon;timestamp;P1;durP1;ratioP1;P2;durP2;ratioP2
44822;SDS011;51097;51.984;5.650;2023-04-24T00:01:21;7.57;;;6.05;;
44822;SDS011;51097;51.984;5.650;2023-04-24T00:03:47;7.45;;;5.75;;
44822;SDS011;51097;51.984;5.650;2023-04-24T00:06:12;8.85;;;5.90;;
44822;SDS011;51097;51.984;5.650;2023-04-24T00:08:38;7.60;;;6.22;;
44822;SDS011;51097;51.984;5.650;2023-04-24T00:11:03;6.15;;;4.60;;
44822;SDS011;51097;51.984;5.650;2023-04-24T00:13:29;8.25;;;5.15;;
44822;SDS011;51097;51.984;5.650;2023-04-24T00:15:55;6.65;;;5.13;;
44822;SDS011;51097;51.984;5.650;2023-04-24T00:18:21;5.78;;;5.25;;
44822;SDS011;51097;51.984;5.650;2023-04-24T00:20:46;5.03;;;4.38;;
44822;SDS011;51097;51.984;5.650;2023-04-24T00:23:12;5.32;;;4.13;;
44822;SDS011;51097;51.984;5.650;2023-04-24T00:25:38;6.00;;;4.35;;
44822;SDS011;51097;51.984;5.650;2023-04-24T00:28:04;4.90;;;4.22;;
44822;SDS011;51097;51.984;5.650;2023-04-24T00:30:30;6.53;;;4.55;;
44822;SDS011;51097;51.984;5.650;2023-04-24T00:32:56;4.55;;;4.15;;
44822;SDS011;51097;51.984;5.650;2023-04-24T00:35:22;5.70;;;3.90;;
44822;SDS011;51097;51.984;5.650;2023-04-24T00:37:48;5.03;;;4.50;;
44822;SDS011;51097;51.984;5.650;2023-04-24T00:40:13;3.58;;;3.22;;
44822;SDS011;51097;51.984;5.650;2023-04-24T00:42:39;3.97;;;2.88;;
44822;SDS011;51097;51.984;5.650;2023-04-24T00:45:05;4.68;;;3.80;;
44822;SDS011;51097;51.984;5.650;2023-04-24T00:47:32;6.25;;;4.55;;
44822;SDS011;51097;51.984;5.650;2023-04-24T00:49:58;7.40;;;5.38;;
44822;SDS011;51097;51.984;5.650;2023-04-24T00:52:25;9.73;;;6.85;;
44822;SDS011;51097;51.984;5.650;2023-04-24T00:54:51;8.13;;;7.32;;
44822;SDS011;51097;51.984;5.650;2023-04-24T00:57:16;7.78;;;6.10;;
44822;SDS011;51097;51.984;5.650;2023-04-24T00:59:42;5.78;;;4.22;;
44822;SDS011;51097;51.984;5.650;2023-04-24T01:02:09;3.35;;;2.97;;
44822;SDS011;51097;51.984;5.650;2023-04-24T01:04:36;3.13;;;2.83;;
44822;SDS011;51097;51.984;5.650;2023-04-24T01:07:01;3.30;;;3.00;;
44822;SDS011;51097;51.984;5.650;2023-04-24T01:09:27;2.85;;;2.65;;
44822;SDS011;51097;51.984;5.650;2023-04-24T01:11:54;1.83;;;1.50;;
44822;SDS011;51097;51.984;5.650;2023-04-24T01:14:20;1.80;;;1.30;;
44822;SDS011;51097;51.984;5.650;2023-04-24T01:16:45;2.20;;;1.40;;
44822;SDS011;51097;51.984;5.650;2023-04-24T01:19:11;1.50;;;1.33;;
44822;SDS011;51097;51.984;5.650;2023-04-24T01:21:39;2.20;;;2.00;;
44822;SDS011;51097;51.984;5.650;2023-04-24T01:24:08;2.53;;;2.00;;
44822;SDS011;51097;51.984;5.650;2023-04-24T01:26:34;3.63;;;1.83;;
44822;SDS011;51097;51.984;5.650;2023-04-24T01:29:00;2.42;;;2.15;;
44822;SDS011;51097;51.984;5.650;2023-04-24T01:31:25;4.00;;;2.97;;
44822;SDS011;51097;51.984;5.650;2023-04-24T01:33:51;2.80;;;2.40;;
44822;SDS011;51097;51.984;5.650;2023-04-24T01:36:18;3.38;;;2.50;;
44822;SDS011;51097;51.984;5.650;2023-04-24T01:38:44;3.08;;;2.78;;
44822;SDS011;51097;51.984;5.650;2023-04-24T01:41:10;3.67;;;2.58;;
44822;SDS011;51097;51.984;5.650;2023-04-24T01:43:36;2.65;;;2.35;;
44822;SDS011;51097;51.984;5.650;2023-04-24T01:46:01;4.72;;;2.60;;
44822;SDS011;51097;51.984;5.650;2023-04-24T01:48:27;3.30;;;2.72;;
44822;SDS011;51097;51.984;5.650;2023-04-24T01:50:53;4.97;;;2.65;;
44822;SDS011;51097;51.984;5.650;2023-04-24T01:53:19;3.13;;;2.78;;
44822;SDS011;51097;51.984;5.650;2023-04-24T01:55:45;5.05;;;3.45;;
44822;SDS011;51097;51.984;5.650;2023-04-24T01:58:11;3.85;;;2.75;;
44822;SDS011;51097;51.984;5.650;2023-04-24T02:00:37;4.20;;;3.80;;
44822;SDS011;51097;51.984;5.650;2023-04-24T02:03:02;6.72;;;3.92;;
44822;SDS011;51097;51.984;5.650;2023-04-24T02:05:28;6.68;;;4.45;;
44822;SDS011;51097;51.984;5.650;2023-04-24T02:07:53;5.85;;;4.60;;
44822;SDS011;51097;51.984;5.650;2023-04-24T02:10:19;5.60;;;4.80;;
44822;SDS011;51097;51.984;5.650;2023-04-24T02:12:44;9.88;;;5.20;;
44822;SDS011;51097;51.984;5.650;2023-04-24T02:15:10;6.55;;;5.70;;
44822;SDS011;51097;51.984;5.650;2023-04-24T02:17:36;8.38;;;7.57;;
44822;SDS011;51097;51.984;5.650;2023-04-24T02:20:02;9.23;;;7.68;;
44822;SDS011;51097;51.984;5.650;2023-04-24T02:22:28;10.15;;;8.85;;
44822;SDS011;51097;51.984;5.650;2023-04-24T02:24:54;15.95;;;9.63;;
44822;SDS011;51097;51.984;5.650;2023-04-24T02:27:20;13.95;;;9.52;;
44822;SDS011;51097;51.984;5.650;2023-04-24T02:29:45;14.73;;;11.48;;
44822;SDS011;51097;51.984;5.650;2023-04-24T02:32:11;17.80;;;12.27;;
44822;SDS011;51097;51.984;5.650;2023-04-24T02:34:37;15.57;;;12.32;;
44822;SDS011;51097;51.984;5.650;2023-04-24T02:37:03;15.48;;;12.55;;
44822;SDS011;51097;51.984;5.650;2023-04-24T02:39:28;13.90;;;11.05;;
44822;SDS011;51097;51.984;5.650;2023-04-24T02:41:54;13.88;;;10.43;;
44822;SDS011;51097;51.984;5.650;2023-04-24T02:44:19;13.02;;;10.35;;
44822;SDS011;51097;51.984;5.650;2023-04-24T02:46:46;14.30;;;11.77;;
44822;SDS011;51097;51.984;5.650;2023-04-24T02:49:12;16.65;;;10.93;;
44822;SDS011;51097;51.984;5.650;2023-04-24T02:51:37;14.13;;;10.70;;
44822;SDS011;51097;51.984;5.650;2023-04-24T02:54:05;12.30;;;10.13;;
44822;SDS011;51097;51.984;5.650;2023-04-24T02:56:32;10.02;;;8.60;;
44822;SDS011;51097;51.984;5.650;2023-04-24T02:58:58;11.77;;;8.25;;
44822;SDS011;51097;51.984;5.650;2023-04-24T03:01:24;11.10;;;7.32;;
44822;SDS011;51097;51.984;5.650;2023-04-24T03:03:50;9.23;;;7.60;;
44822;SDS011;51097;51.984;5.650;2023-04-24T03:06:15;9.57;;;7.22;;
44822;SDS011;51097;51.984;5.650;2023-04-24T03:08:41;11.25;;;9.38;;
44822;SDS011;51097;51.984;5.650;2023-04-24T03:11:06;10.30;;;8.32;;
44822;SDS011;51097;51.984;5.650;2023-04-24T03:13:32;11.23;;;8.48;;
44822;SDS011;51097;51.984;5.650;2023-04-24T03:15:57;11.57;;;8.65;;
44822;SDS011;51097;51.984;5.650;2023-04-24T03:18:23;11.73;;;9.32;;
44822;SDS011;51097;51.984;5.650;2023-04-24T03:20:48;12.77;;;10.45;;
44822;SDS011;51097;51.984;5.650;2023-04-24T03:23:15;12.45;;;10.05;;
44822;SDS011;51097;51.984;5.650;2023-04-24T03:25:40;16.27;;;12.20;;
44822;SDS011;51097;51.984;5.650;2023-04-24T03:28:07;17.15;;;13.73;;
44822;SDS011;51097;51.984;5.650;2023-04-24T03:30:33;19.58;;;14.68;;
44822;SDS011;51097;51.984;5.650;2023-04-24T03:32:58;20.55;;;14.90;;
44822;SDS011;51097;51.984;5.650;2023-04-24T03:35:24;21.02;;;15.65;;
44822;SDS011;51097;51.984;5.650;2023-04-24T03:37:50;22.25;;;17.10;;
44822;SDS011;51097;51.984;5.650;2023-04-24T03:40:15;23.17;;;19.20;;
44822;SDS011;51097;51.984;5.650;2023-04-24T03:42:41;24.92;;;18.63;;
44822;SDS011;51097;51.984;5.650;2023-04-24T03:45:06;27.10;;;20.27;;
44822;SDS011;51097;51.984;5.650;2023-04-24T03:47:33;29.95;;;22.98;;
44822;SDS011;51097;51.984;5.650;2023-04-24T03:49:58;29.33;;;21.05;;
44822;SDS011;51097;51.984;5.650;2023-04-24T03:52:24;30.73;;;22.48;;
44822;SDS011;51097;51.984;5.650;2023-04-24T03:54:50;34.60;;;23.90;;
44822;SDS011;51097;51.984;5.650;2023-04-24T03:57:15;40.22;;;24.92;;
44822;SDS011;51097;51.984;5.650;2023-04-24T03:59:41;35.58;;;25.08;;
44822;SDS011;51097;51.984;5.650;2023-04-24T04:02:06;37.20;;;27.08;;
44822;SDS011;51097;51.984;5.650;2023-04-24T04:04:32;37.30;;;26.63;;
44822;SDS011;51097;51.984;5.650;2023-04-24T04:06:58;39.03;;;27.77;;
44822;SDS011;51097;51.984;5.650;2023-04-24T04:09:26;40.63;;;30.20;;
44822;SDS011;51097;51.984;5.650;2023-04-24T04:11:51;40.72;;;28.63;;
44822;SDS011;51097;51.984;5.650;2023-04-24T04:14:17;37.83;;;29.63;;
44822;SDS011;51097;51.984;5.650;2023-04-24T04:16:42;38.50;;;28.23;;
44822;SDS011;51097;51.984;5.650;2023-04-24T04:19:08;42.30;;;29.05;;
44822;SDS011;51097;51.984;5.650;2023-04-24T04:21:34;38.90;;;29.45;;
44822;SDS011;51097;51.984;5.650;2023-04-24T04:23:59;41.63;;;28.90;;
44822;SDS011;51097;51.984;5.650;2023-04-24T04:26:25;37.88;;;27.25;;
44822;SDS011;51097;51.984;5.650;2023-04-24T04:28:51;33.60;;;25.65;;
44822;SDS011;51097;51.984;5.650;2023-04-24T04:31:18;36.33;;;27.05;;
44822;SDS011;51097;51.984;5.650;2023-04-24T04:36:13;34.15;;;26.75;;
44822;SDS011;51097;51.984;5.650;2023-04-24T04:38:39;36.65;;;26.70;;
44822;SDS011;51097;51.984;5.650;2023-04-24T04:41:05;40.28;;;26.40;;
44822;SDS011;51097;51.984;5.650;2023-04-24T04:43:32;31.98;;;24.10;;
44822;SDS011;51097;51.984;5.650;2023-04-24T04:45:59;34.65;;;25.40;;
44822;SDS011;51097;51.984;5.650;2023-04-24T04:48:25;30.25;;;21.73;;
44822;SDS011;51097;51.984;5.650;2023-04-24T04:50:52;21.77;;;17.58;;
44822;SDS011;51097;51.984;5.650;2023-04-24T04:53:17;30.77;;;19.38;;
44822;SDS011;51097;51.984;5.650;2023-04-24T04:55:43;22.10;;;17.15;;
44822;SDS011;51097;51.984;5.650;2023-04-24T04:58:09;25.33;;;18.95;;
44822;SDS011;51097;51.984;5.650;2023-04-24T05:00:34;21.25;;;15.57;;
44822;SDS011;51097;51.984;5.650;2023-04-24T05:03:02;18.45;;;13.68;;
44822;SDS011;51097;51.984;5.650;2023-04-24T05:05:28;14.75;;;11.57;;
44822;SDS011;51097;51.984;5.650;2023-04-24T05:07:54;13.85;;;10.13;;
44822;SDS011;51097;51.984;5.650;2023-04-24T05:10:20;11.90;;;9.02;;
44822;SDS011;51097;51.984;5.650;2023-04-24T05:12:45;9.90;;;7.93;;
44822;SDS011;51097;51.984;5.650;2023-04-24T05:15:11;11.60;;;7.43;;
44822;SDS011;51097;51.984;5.650;2023-04-24T05:17:36;12.35;;;7.88;;
44822;SDS011;51097;51.984;5.650;2023-04-24T05:20:02;8.77;;;6.75;;
44822;SDS011;51097;51.984;5.650;2023-04-24T05:22:32;9.73;;;6.53;;
44822;SDS011;51097;51.984;5.650;2023-04-24T05:24:57;8.35;;;7.15;;
44822;SDS011;51097;51.984;5.650;2023-04-24T05:27:23;8.93;;;6.10;;
44822;SDS011;51097;51.984;5.650;2023-04-24T05:29:49;7.70;;;5.28;;
44822;SDS011;51097;51.984;5.650;2023-04-24T05:32:15;6.45;;;5.18;;
44822;SDS011;51097;51.984;5.650;2023-04-24T05:34:41;5.57;;;5.07;;
44822;SDS011;51097;51.984;5.650;2023-04-24T05:37:07;5.88;;;4.75;;
44822;SDS011;51097;51.984;5.650;2023-04-24T05:39:34;5.28;;;4.18;;
44822;SDS011;51097;51.984;5.650;2023-04-24T05:42:00;7.13;;;4.55;;
44822;SDS011;51097;51.984;5.650;2023-04-24T05:44:26;6.25;;;4.78;;
44822;SDS011;51097;51.984;5.650;2023-04-24T05:46:52;6.60;;;4.90;;
44822;SDS011;51097;51.984;5.650;2023-04-24T05:49:18;6.85;;;5.50;;
44822;SDS011;51097;51.984;5.650;2023-04-24T05:51:43;6.30;;;5.70;;
44822;SDS011;51097;51.984;5.650;2023-04-24T05:54:09;6.53;;;5.82;;
44822;SDS011;51097;51.984;5.650;2023-04-24T05:56:37;7.10;;;5.95;;
44822;SDS011;51097;51.984;5.650;2023-04-24T05:59:02;6.10;;;5.50;;
44822;SDS011;51097;51.984;5.650;2023-04-24T06:01:28;7.72;;;5.60;;
44822;SDS011;51097;51.984;5.650;2023-04-24T06:03:54;7.53;;;6.15;;
44822;SDS011;51097;51.984;5.650;2023-04-24T06:06:20;8.85;;;7.20;;
44822;SDS011;51097;51.984;5.650;2023-04-24T06:08:45;12.65;;;6.30;;
44822;SDS011;51097;51.984;5.650;2023-04-24T06:11:11;8.35;;;7.30;;
44822;SDS011;51097;51.984;5.650;2023-04-24T06:13:37;7.50;;;6.80;;
44822;SDS011;51097;51.984;5.650;2023-04-24T06:16:02;8.10;;;7.05;;
44822;SDS011;51097;51.984;5.650;2023-04-24T06:18:28;7.97;;;6.78;;
44822;SDS011;51097;51.984;5.650;2023-04-24T06:20:53;7.47;;;6.35;;
44822;SDS011;51097;51.984;5.650;2023-04-24T06:23:20;7.22;;;5.85;;
44822;SDS011;51097;51.984;5.650;2023-04-24T06:25:46;6.70;;;6.00;;
44822;SDS011;51097;51.984;5.650;2023-04-24T06:28:12;4.18;;;3.78;;
44822;SDS011;51097;51.984;5.650;2023-04-24T06:30:37;4.60;;;3.72;;
44822;SDS011;51097;51.984;5.650;2023-04-24T06:33:03;3.67;;;3.25;;
44822;SDS011;51097;51.984;5.650;2023-04-24T06:35:28;10.60;;;3.42;;
44822;SDS011;51097;51.984;5.650;2023-04-24T06:37:54;3.70;;;2.95;;
44822;SDS011;51097;51.984;5.650;2023-04-24T06:40:21;3.17;;;2.83;;
44822;SDS011;51097;51.984;5.650;2023-04-24T06:42:47;6.55;;;3.47;;
44822;SDS011;51097;51.984;5.650;2023-04-24T06:45:12;4.60;;;3.40;;
44822;SDS011;51097;51.984;5.650;2023-04-24T06:47:38;5.47;;;3.92;;
44822;SDS011;51097;51.984;5.650;2023-04-24T06:50:04;5.10;;;3.75;;
44822;SDS011;51097;51.984;5.650;2023-04-24T06:52:30;3.92;;;3.13;;
44822;SDS011;51097;51.984;5.650;2023-04-24T06:55:01;3.13;;;2.28;;
44822;SDS011;51097;51.984;5.650;2023-04-24T06:57:27;2.53;;;1.65;;
44822;SDS011;51097;51.984;5.650;2023-04-24T06:59:53;3.35;;;3.05;;
44822;SDS011;51097;51.984;5.650;2023-04-24T07:02:19;2.38;;;1.60;;
44822;SDS011;51097;51.984;5.650;2023-04-24T07:04:45;1.83;;;1.35;;
44822;SDS011;51097;51.984;5.650;2023-04-24T07:07:12;1.67;;;1.38;;
44822;SDS011;51097;51.984;5.650;2023-04-24T07:09:39;3.00;;;1.80;;
44822;SDS011;51097;51.984;5.650;2023-04-24T07:12:06;1.70;;;1.30;;
44822;SDS011;51097;51.984;5.650;2023-04-24T07:14:32;1.92;;;1.75;;
44822;SDS011;51097;51.984;5.650;2023-04-24T07:16:57;3.40;;;2.33;;
44822;SDS011;51097;51.984;5.650;2023-04-24T07:19:23;5.65;;;3.42;;
44822;SDS011;51097;51.984;5.650;2023-04-24T07:21:49;7.53;;;4.85;;
44822;SDS011;51097;51.984;5.650;2023-04-24T07:24:15;6.47;;;5.13;;
44822;SDS011;51097;51.984;5.650;2023-04-24T07:26:40;8.45;;;6.07;;
44822;SDS011;51097;51.984;5.650;2023-04-24T07:29:06;6.90;;;5.80;;
44822;SDS011;51097;51.984;5.650;2023-04-24T07:31:32;11.98;;;7.63;;
44822;SDS011;51097;51.984;5.650;2023-04-24T07:33:58;9.82;;;7.25;;
44822;SDS011;51097;51.984;5.650;2023-04-24T07:36:24;9.77;;;8.32;;
44822;SDS011;51097;51.984;5.650;2023-04-24T07:38:51;14.48;;;9.27;;
44822;SDS011;51097;51.984;5.650;2023-04-24T07:41:16;13.50;;;9.65;;
44822;SDS011;51097;51.984;5.650;2023-04-24T07:43:42;15.75;;;10.15;;
44822;SDS011;51097;51.984;5.650;2023-04-24T07:46:10;14.25;;;9.90;;
44822;SDS011;51097;51.984;5.650;2023-04-24T07:48:36;13.88;;;9.18;;
44822;SDS011;51097;51.984;5.650;2023-04-24T07:51:01;14.65;;;11.13;;
44822;SDS011;51097;51.984;5.650;2023-04-24T07:53:28;14.35;;;11.23;;
44822;SDS011;51097;51.984;5.650;2023-04-24T07:55:54;15.68;;;9.88;;
44822;SDS011;51097;51.984;5.650;2023-04-24T07:58:21;15.65;;;10.73;;
44822;SDS011;51097;51.984;5.650;2023-04-24T08:00:46;14.63;;;10.90;;
44822;SDS011;51097;51.984;5.650;2023-04-24T08:03:12;14.75;;;11.43;;
44822;SDS011;51097;51.984;5.650;2023-04-24T08:05:38;20.77;;;12.00;;
44822;SDS011;51097;51.984;5.650;2023-04-24T08:08:04;15.65;;;11.55;;
44822;SDS011;51097;51.984;5.650;2023-04-24T08:10:29;18.02;;;11.98;;
44822;SDS011;51097;51.984;5.650;2023-04-24T08:12:58;17.95;;;12.52;;
44822;SDS011;51097;51.984;5.650;2023-04-24T08:15:23;13.32;;;11.13;;
44822;SDS011;51097;51.984;5.650;2023-04-24T08:17:49;20.17;;;11.75;;
44822;SDS011;51097;51.984;5.650;2023-04-24T08:20:15;15.98;;;12.30;;
44822;SDS011;51097;51.984;5.650;2023-04-24T08:22:41;21.33;;;11.48;;
44822;SDS011;51097;51.984;5.650;2023-04-24T08:25:07;17.33;;;10.73;;
44822;SDS011;51097;51.984;5.650;2023-04-24T08:27:34;17.27;;;10.40;;
44822;SDS011;51097;51.984;5.650;2023-04-24T08:30:01;15.70;;;10.25;;
44822;SDS011;51097;51.984;5.650;2023-04-24T08:32:27;17.67;;;10.25;;
44822;SDS011;51097;51.984;5.650;2023-04-24T08:34:54;18.15;;;10.77;;
44822;SDS011;51097;51.984;5.650;2023-04-24T08:37:21;15.82;;;10.50;;
44822;SDS011;51097;51.984;5.650;2023-04-24T08:39:47;14.45;;;10.02;;
44822;SDS011;51097;51.984;5.650;2023-04-24T08:42:12;16.80;;;8.43;;
44822;SDS011;51097;51.984;5.650;2023-04-24T08:44:39;15.82;;;8.57;;
44822;SDS011;51097;51.984;5.650;2023-04-24T08:47:05;13.82;;;7.75;;
44822;SDS011;51097;51.984;5.650;2023-04-24T08:49:32;11.13;;;6.95;;
44822;SDS011;51097;51.984;5.650;2023-04-24T08:52:00;13.88;;;6.95;;
44822;SDS011;51097;51.984;5.650;2023-04-24T08:54:27;14.25;;;6.15;;
44822;SDS011;51097;51.984;5.650;2023-04-24T08:56:53;12.98;;;6.32;;
44822;SDS011;51097;51.984;5.650;2023-04-24T08:59:23;14.30;;;6.78;;
44822;SDS011;51097;51.984;5.650;2023-04-24T09:01:49;13.23;;;6.13;;
44822;SDS011;51097;51.984;5.650;2023-04-24T09:04:16;21.13;;;6.75;;
44822;SDS011;51097;51.984;5.650;2023-04-24T09:06:47;14.27;;;5.45;;
44822;SDS011;51097;51.984;5.650;2023-04-24T09:09:22;17.05;;;5.15;;
44822;SDS011;51097;51.984;5.650;2023-04-24T09:11:49;12.13;;;3.97;;
44822;SDS011;51097;51.984;5.650;2023-04-24T09:14:15;14.95;;;3.90;;
44822;SDS011;51097;51.984;5.650;2023-04-24T09:16:42;14.98;;;5.22;;
44822;SDS011;51097;51.984;5.650;2023-04-24T09:19:07;12.55;;;4.00;;
44822;SDS011;51097;51.984;5.650;2023-04-24T09:21:34;6.95;;;3.58;;
44822;SDS011;51097;51.984;5.650;2023-04-24T09:24:05;11.00;;;3.42;;
44822;SDS011;51097;51.984;5.650;2023-04-24T09:26:35;11.77;;;3.83;;
44822;SDS011;51097;51.984;5.650;2023-04-24T09:29:01;11.60;;;3.50;;
44822;SDS011;51097;51.984;5.650;2023-04-24T09:31:29;5.60;;;2.70;;
44822;SDS011;51097;51.984;5.650;2023-04-24T09:33:55;10.38;;;3.08;;
44822;SDS011;51097;51.984;5.650;2023-04-24T09:36:28;10.35;;;2.95;;
44822;SDS011;51097;51.984;5.650;2023-04-24T09:38:59;9.50;;;4.05;;
44822;SDS011;51097;51.984;5.650;2023-04-24T09:41:26;11.32;;;3.28;;
44822;SDS011;51097;51.984;5.650;2023-04-24T09:43:53;10.73;;;3.97;;
44822;SDS011;51097;51.984;5.650;2023-04-24T09:46:30;7.47;;;3.25;;
44822;SDS011;51097;51.984;5.650;2023-04-24T09:49:07;10.18;;;3.35;;
44822;SDS011;51097;51.984;5.650;2023-04-24T09:51:45;9.93;;;3.20;;
44822;SDS011;51097;51.984;5.650;2023-04-24T09:54:14;7.70;;;3.70;;
44822;SDS011;51097;51.984;5.650;2023-04-24T09:56:42;7.53;;;3.75;;
44822;SDS011;51097;51.984;5.650;2023-04-24T09:59:09;10.48;;;3.47;;
44822;SDS011;51097;51.984;5.650;2023-04-24T10:01:35;10.77;;;3.40;;
44822;SDS011;51097;51.984;5.650;2023-04-24T10:04:03;8.57;;;3.45;;
44822;SDS011;51097;51.984;5.650;2023-04-24T10:06:35;8.90;;;3.15;;
44822;SDS011;51097;51.984;5.650;2023-04-24T10:09:01;10.23;;;3.30;;
44822;SDS011;51097;51.984;5.650;2023-04-24T10:11:28;13.85;;;3.40;;
44822;SDS011;51097;51.984;5.650;2023-04-24T10:13:57;10.77;;;3.90;;
44822;SDS011;51097;51.984;5.650;2023-04-24T10:16:24;5.88;;;3.13;;
44822;SDS011;51097;51.984;5.650;2023-04-24T10:18:52;11.40;;;3.45;;
44822;SDS011;51097;51.984;5.650;2023-04-24T10:21:18;8.40;;;2.45;;
44822;SDS011;51097;51.984;5.650;2023-04-24T10:23:43;11.35;;;4.65;;
44822;SDS011;51097;51.984;5.650;2023-04-24T10:26:14;7.38;;;3.85;;
44822;SDS011;51097;51.984;5.650;2023-04-24T10:28:46;6.75;;;2.75;;
44822;SDS011;51097;51.984;5.650;2023-04-24T10:31:13;6.60;;;2.58;;
44822;SDS011;51097;51.984;5.650;2023-04-24T10:33:43;7.15;;;2.97;;
44822;SDS011;51097;51.984;5.650;2023-04-24T10:36:10;10.23;;;2.67;;
44822;SDS011;51097;51.984;5.650;2023-04-24T10:38:38;6.28;;;2.17;;
44822;SDS011;51097;51.984;5.650;2023-04-24T10:41:07;8.07;;;2.70;;
44822;SDS011;51097;51.984;5.650;2023-04-24T10:43:34;4.60;;;2.40;;
44822;SDS011;51097;51.984;5.650;2023-04-24T10:46:04;4.75;;;1.67;;
44822;SDS011;51097;51.984;5.650;2023-04-24T10:48:31;9.65;;;2.00;;
44822;SDS011;51097;51.984;5.650;2023-04-24T10:50:57;13.07;;;2.03;;
44822;SDS011;51097;51.984;5.650;2023-04-24T10:53:24;6.40;;;2.15;;
44822;SDS011;51097;51.984;5.650;2023-04-24T10:58:38;8.95;;;2.30;;
44822;SDS011;51097;51.984;5.650;2023-04-24T11:01:06;7.20;;;1.45;;
44822;SDS011;51097;51.984;5.650;2023-04-24T11:03:33;3.55;;;1.70;;
44822;SDS011;51097;51.984;5.650;2023-04-24T11:08:37;4.32;;;1.35;;
44822;SDS011;51097;51.984;5.650;2023-04-24T11:11:04;4.32;;;1.30;;
44822;SDS011;51097;51.984;5.650;2023-04-24T11:16:34;4.65;;;1.05;;
44822;SDS011;51097;51.984;5.650;2023-04-24T11:19:04;7.10;;;2.00;;
44822;SDS011;51097;51.984;5.650;2023-04-24T11:21:32;5.88;;;1.25;;
44822;SDS011;51097;51.984;5.650;2023-04-24T11:26:58;2.70;;;0.98;;
44822;SDS011;51097;51.984;5.650;2023-04-24T11:29:42;4.53;;;1.00;;
44822;SDS011;51097;51.984;5.650;2023-04-24T11:32:17;2.63;;;0.88;;
44822;SDS011;51097;51.984;5.650;2023-04-24T11:34:49;1.90;;;1.50;;
44822;SDS011;51097;51.984;5.650;2023-04-24T11:37:17;4.95;;;1.08;;
44822;SDS011;51097;51.984;5.650;2023-04-24T11:39:43;5.03;;;1.45;;
44822;SDS011;51097;51.984;5.650;2023-04-24T11:42:08;4.47;;;1.10;;
44822;SDS011;51097;51.984;5.650;2023-04-24T11:44:34;2.13;;;0.60;;
44822;SDS011;51097;51.984;5.650;2023-04-24T11:47:06;1.63;;;0.80;;
44822;SDS011;51097;51.984;5.650;2023-04-24T11:49:33;3.03;;;1.63;;
44822;SDS011;51097;51.984;5.650;2023-04-24T11:52:02;3.88;;;0.93;;
44822;SDS011;51097;51.984;5.650;2023-04-24T11:54:28;2.47;;;0.80;;
44822;SDS011;51097;51.984;5.650;2023-04-24T11:56:53;2.35;;;0.90;;
44822;SDS011;51097;51.984;5.650;2023-04-24T11:59:19;2.08;;;1.00;;
44822;SDS011;51097;51.984;5.650;2023-04-24T12:01:48;4.20;;;1.08;;
44822;SDS011;51097;51.984;5.650;2023-04-24T12:04:15;8.45;;;1.27;;
44822;SDS011;51097;51.984;5.650;2023-04-24T12:09:40;4.53;;;1.10;;
44822;SDS011;51097;51.984;5.650;2023-04-24T12:12:08;6.85;;;1.17;;
44822;SDS011;51097;51.984;5.650;2023-04-24T12:14:47;2.45;;;1.30;;
44822;SDS011;51097;51.984;5.650;2023-04-24T12:17:15;4.95;;;1.33;;
44822;SDS011;51097;51.984;5.650;2023-04-24T12:19:47;3.45;;;1.00;;
44822;SDS011;51097;51.984;5.650;2023-04-24T12:22:13;2.15;;;0.93;;
44822;SDS011;51097;51.984;5.650;2023-04-24T12:24:58;6.68;;;1.00;;
44822;SDS011;51097;51.984;5.650;2023-04-24T12:27:26;4.07;;;0.90;;
44822;SDS011;51097;51.984;5.650;2023-04-24T12:29:57;4.00;;;1.10;;
44822;SDS011;51097;51.984;5.650;2023-04-24T12:32:24;2.15;;;0.73;;
44822;SDS011;51097;51.984;5.650;2023-04-24T12:34:51;2.38;;;0.85;;
44822;SDS011;51097;51.984;5.650;2023-04-24T12:37:17;5.90;;;0.80;;
44822;SDS011;51097;51.984;5.650;2023-04-24T12:40:03;1.67;;;0.82;;
44822;SDS011;51097;51.984;5.650;2023-04-24T12:42:31;3.17;;;0.80;;
44822;SDS011;51097;51.984;5.650;2023-04-24T12:45:04;4.07;;;1.00;;
44822;SDS011;51097;51.984;5.650;2023-04-24T12:47:31;4.45;;;1.10;;
44822;SDS011;51097;51.984;5.650;2023-04-24T12:49:58;2.78;;;0.90;;
44822;SDS011;51097;51.984;5.650;2023-04-24T12:52:24;4.05;;;1.48;;
44822;SDS011;51097;51.984;5.650;2023-04-24T12:54:52;5.53;;;1.00;;
44822;SDS011;51097;51.984;5.650;2023-04-24T12:57:20;8.32;;;1.50;;
44822;SDS011;51097;51.984;5.650;2023-04-24T12:59:46;6.30;;;1.83;;
44822;SDS011;51097;51.984;5.650;2023-04-24T13:02:12;7.47;;;1.42;;
44822;SDS011;51097;51.984;5.650;2023-04-24T13:04:38;2.85;;;1.20;;
44822;SDS011;51097;51.984;5.650;2023-04-24T13:07:04;4.15;;;1.38;;
44822;SDS011;51097;51.984;5.650;2023-04-24T13:09:30;5.55;;;1.65;;
44822;SDS011;51097;51.984;5.650;2023-04-24T13:11:56;8.18;;;2.38;;
44822;SDS011;51097;51.984;5.650;2023-04-24T13:14:22;8.07;;;1.92;;
44822;SDS011;51097;51.984;5.650;2023-04-24T13:16:47;5.80;;;1.48;;
44822;SDS011;51097;51.984;5.650;2023-04-24T13:19:13;6.65;;;2.08;;
44822;SDS011;51097;51.984;5.650;2023-04-24T13:21:40;4.65;;;1.35;;
44822;SDS011;51097;51.984;5.650;2023-04-24T13:24:05;5.75;;;1.67;;
44822;SDS011;51097;51.984;5.650;2023-04-24T13:26:32;6.75;;;1.60;;
44822;SDS011;51097;51.984;5.650;2023-04-24T13:28:58;8.85;;;1.90;;
44822;SDS011;51097;51.984;5.650;2023-04-24T13:31:24;4.38;;;1.73;;
44822;SDS011;51097;51.984;5.650;2023-04-24T13:33:49;9.27;;;1.90;;
44822;SDS011;51097;51.984;5.650;2023-04-24T13:36:15;8.70;;;1.75;;
44822;SDS011;51097;51.984;5.650;2023-04-24T13:38:42;3.90;;;2.05;;
44822;SDS011;51097;51.984;5.650;2023-04-24T13:41:08;9.32;;;2.63;;
44822;SDS011;51097;51.984;5.650;2023-04-24T13:43:34;7.28;;;1.63;;
44822;SDS011;51097;51.984;5.650;2023-04-24T13:46:00;6.22;;;1.92;;
44822;SDS011;51097;51.984;5.650;2023-04-24T13:48:27;4.65;;;1.80;;
44822;SDS011;51097;51.984;5.650;2023-04-24T13:50:53;7.35;;;1.60;;
44822;SDS011;51097;51.984;5.650;2023-04-24T13:53:19;6.50;;;1.52;;
44822;SDS011;51097;51.984;5.650;2023-04-24T13:55:45;6.82;;;1.83;;
44822;SDS011;51097;51.984;5.650;2023-04-24T13:58:10;6.78;;;2.30;;
44822;SDS011;51097;51.984;5.650;2023-04-24T14:00:36;6.45;;;1.70;;
44822;SDS011;51097;51.984;5.650;2023-04-24T14:03:01;8.75;;;2.28;;
44822;SDS011;51097;51.984;5.650;2023-04-24T14:05:27;6.13;;;2.70;;
44822;SDS011;51097;51.984;5.650;2023-04-24T14:07:52;11.15;;;2.55;;
44822;SDS011;51097;51.984;5.650;2023-04-24T14:10:18;10.15;;;3.10;;
44822;SDS011;51097;51.984;5.650;2023-04-24T14:12:44;6.25;;;2.28;;
44822;SDS011;51097;51.984;5.650;2023-04-24T14:15:10;9.40;;;1.83;;
44822;SDS011;51097;51.984;5.650;2023-04-24T14:17:36;5.78;;;1.95;;
44822;SDS011;51097;51.984;5.650;2023-04-24T14:20:01;4.50;;;1.65;;
44822;SDS011;51097;51.984;5.650;2023-04-24T14:22:28;5.78;;;1.75;;
44822;SDS011;51097;51.984;5.650;2023-04-24T14:24:54;9.02;;;2.38;;
44822;SDS011;51097;51.984;5.650;2023-04-24T14:27:19;5.85;;;2.35;;
44822;SDS011;51097;51.984;5.650;2023-04-24T14:29:45;6.07;;;2.28;;
44822;SDS011;51097;51.984;5.650;2023-04-24T14:32:11;7.70;;;2.10;;
44822;SDS011;51097;51.984;5.650;2023-04-24T14:34:36;5.80;;;2.10;;
44822;SDS011;51097;51.984;5.650;2023-04-24T14:37:02;7.45;;;2.72;;
44822;SDS011;51097;51.984;5.650;2023-04-24T14:39:28;10.43;;;2.67;;
44822;SDS011;51097;51.984;5.650;2023-04-24T14:41:53;6.85;;;2.42;;
44822;SDS011;51097;51.984;5.650;2023-04-24T14:44:20;9.73;;;2.70;;
44822;SDS011;51097;51.984;5.650;2023-04-24T14:46:45;5.10;;;2.80;;
44822;SDS011;51097;51.984;5.650;2023-04-24T14:49:11;8.32;;;3.10;;
44822;SDS011;51097;51.984;5.650;2023-04-24T14:51:37;8.30;;;3.10;;
44822;SDS011;51097;51.984;5.650;2023-04-24T14:54:03;8.57;;;2.72;;